sensor_id;sensor_type;location;lat;lon;timestamp;P1;durP1;ratioP1;P2;durP2;ratioP2
48733;SDS011;34530;52.084;5.146;2023-02-28T00:00:23;13.40;;;6.28;;
48733;SDS011;34530;52.084;5.146;2023-02-28T00:02:49;10.75;;;5.80;;
48733;SDS011;34530;52.084;5.146;2023-02-28T00:05:17;10.15;;;5.50;;
48733;SDS011;34530;52.084;5.146;2023-02-28T00:07:44;9.65;;;5.57;;
48733;SDS011;34530;52.084;5.146;2023-02-28T00:10:12;8.38;;;5.35;;
48733;SDS011;34530;52.084;5.146;2023-02-28T00:12:39;8.63;;;5.53;;
48733;SDS011;34530;52.084;5.146;2023-02-28T00:15:06;12.73;;;5.78;;
48733;SDS011;34530;52.084;5.146;2023-02-28T00:17:34;11.40;;;6.15;;
48733;SDS011;34530;52.084;5.146;2023-02-28T00:20:01;8.43;;;5.30;;
48733;SDS011;34530;52.084;5.146;2023-02-28T00:22:27;10.15;;;5.88;;
48733;SDS011;34530;52.084;5.146;2023-02-28T00:24:53;9.73;;;5.22;;
48733;SDS011;34530;52.084;5.146;2023-02-28T00:27:18;7.85;;;5.22;;
48733;SDS011;34530;52.084;5.146;2023-02-28T00:29:45;9.88;;;5.38;;
48733;SDS011;34530;52.084;5.146;2023-02-28T00:32:11;9.07;;;5.70;;
48733;SDS011;34530;52.084;5.146;2023-02-28T00:34:37;9.65;;;5.80;;
48733;SDS011;34530;52.084;5.146;2023-02-28T00:37:06;8.52;;;4.75;;
48733;SDS011;34530;52.084;5.146;2023-02-28T00:39:34;7.95;;;4.75;;
48733;SDS011;34530;52.084;5.146;2023-02-28T00:42:01;8.45;;;4.97;;
48733;SDS011;34530;52.084;5.146;2023-02-28T00:44:27;6.78;;;4.57;;
48733;SDS011;34530;52.084;5.146;2023-02-28T00:46:53;8.30;;;4.63;;
48733;SDS011;34530;52.084;5.146;2023-02-28T00:49:20;7.22;;;5.05;;
48733;SDS011;34530;52.084;5.146;2023-02-28T00:51:46;7.25;;;4.60;;
48733;SDS011;34530;52.084;5.146;2023-02-28T00:54:12;7.53;;;4.72;;
48733;SDS011;34530;52.084;5.146;2023-02-28T00:56:37;10.63;;;5.10;;
48733;SDS011;34530;52.084;5.146;2023-02-28T00:59:03;8.25;;;4.15;;
48733;SDS011;34530;52.084;5.146;2023-02-28T01:01:28;6.90;;;4.72;;
48733;SDS011;34530;52.084;5.146;2023-02-28T01:03:54;8.02;;;4.65;;
48733;SDS011;34530;52.084;5.146;2023-02-28T01:06:20;7.10;;;4.38;;
48733;SDS011;34530;52.084;5.146;2023-02-28T01:08:45;7.05;;;4.70;;
48733;SDS011;34530;52.084;5.146;2023-02-28T01:11:11;6.90;;;4.05;;
48733;SDS011;34530;52.084;5.146;2023-02-28T01:13:39;7.10;;;4.45;;
48733;SDS011;34530;52.084;5.146;2023-02-28T01:16:05;9.45;;;5.22;;
48733;SDS011;34530;52.084;5.146;2023-02-28T01:18:31;5.38;;;4.00;;
48733;SDS011;34530;52.084;5.146;2023-02-28T01:20:57;8.20;;;4.20;;
48733;SDS011;34530;52.084;5.146;2023-02-28T01:23:23;7.10;;;4.82;;
48733;SDS011;34530;52.084;5.146;2023-02-28T01:25:49;6.15;;;3.92;;
48733;SDS011;34530;52.084;5.146;2023-02-28T01:28:16;6.25;;;3.90;;
48733;SDS011;34530;52.084;5.146;2023-02-28T01:30:41;5.03;;;3.65;;
48733;SDS011;34530;52.084;5.146;2023-02-28T01:33:07;7.28;;;4.10;;
48733;SDS011;34530;52.084;5.146;2023-02-28T01:35:33;6.00;;;4.03;;
48733;SDS011;34530;52.084;5.146;2023-02-28T01:37:59;6.88;;;4.10;;
48733;SDS011;34530;52.084;5.146;2023-02-28T01:40:25;5.97;;;4.18;;
48733;SDS011;34530;52.084;5.146;2023-02-28T01:42:51;6.82;;;3.58;;
48733;SDS011;34530;52.084;5.146;2023-02-28T01:45:18;7.10;;;4.18;;
48733;SDS011;34530;52.084;5.146;2023-02-28T01:47:51;5.55;;;3.70;;
48733;SDS011;34530;52.084;5.146;2023-02-28T01:50:22;6.70;;;3.78;;
48733;SDS011;34530;52.084;5.146;2023-02-28T01:52:51;6.53;;;3.78;;
48733;SDS011;34530;52.084;5.146;2023-02-28T01:55:20;5.65;;;3.75;;
48733;SDS011;34530;52.084;5.146;2023-02-28T01:57:51;4.78;;;3.63;;
48733;SDS011;34530;52.084;5.146;2023-02-28T02:00:20;6.82;;;3.55;;
48733;SDS011;34530;52.084;5.146;2023-02-28T02:02:49;4.30;;;3.25;;
48733;SDS011;34530;52.084;5.146;2023-02-28T02:05:23;7.25;;;3.92;;
48733;SDS011;34530;52.084;5.146;2023-02-28T02:08:04;5.32;;;4.03;;
48733;SDS011;34530;52.084;5.146;2023-02-28T02:10:41;5.00;;;3.35;;
48733;SDS011;34530;52.084;5.146;2023-02-28T02:13:14;4.38;;;2.92;;
48733;SDS011;34530;52.084;5.146;2023-02-28T02:16:00;5.95;;;3.20;;
48733;SDS011;34530;52.084;5.146;2023-02-28T02:25:19;5.03;;;3.20;;
48733;SDS011;34530;52.084;5.146;2023-02-28T02:30:58;4.70;;;3.25;;
48733;SDS011;34530;52.084;5.146;2023-02-28T02:39:30;4.30;;;2.80;;
48733;SDS011;34530;52.084;5.146;2023-02-28T02:41:58;4.90;;;3.10;;
48733;SDS011;34530;52.084;5.146;2023-02-28T02:44:30;5.80;;;3.17;;
48733;SDS011;34530;52.084;5.146;2023-02-28T02:47:03;5.07;;;3.83;;
48733;SDS011;34530;52.084;5.146;2023-02-28T02:49:43;4.53;;;3.20;;
48733;SDS011;34530;52.084;5.146;2023-02-28T02:52:14;4.30;;;2.90;;
48733;SDS011;34530;52.084;5.146;2023-02-28T02:54:44;3.85;;;2.80;;
48733;SDS011;34530;52.084;5.146;2023-02-28T02:57:15;3.97;;;3.10;;
48733;SDS011;34530;52.084;5.146;2023-02-28T02:59:56;4.05;;;2.90;;
48733;SDS011;34530;52.084;5.146;2023-02-28T03:02:24;4.72;;;2.60;;
48733;SDS011;34530;52.084;5.146;2023-02-28T03:04:52;5.00;;;3.08;;
48733;SDS011;34530;52.084;5.146;2023-02-28T03:07:25;5.55;;;3.10;;
48733;SDS011;34530;52.084;5.146;2023-02-28T03:09:52;5.38;;;2.92;;
48733;SDS011;34530;52.084;5.146;2023-02-28T03:12:19;4.25;;;2.90;;
48733;SDS011;34530;52.084;5.146;2023-02-28T03:15:01;3.97;;;2.63;;
48733;SDS011;34530;52.084;5.146;2023-02-28T03:17:53;4.28;;;2.90;;
48733;SDS011;34530;52.084;5.146;2023-02-28T03:28:19;4.47;;;2.53;;
48733;SDS011;34530;52.084;5.146;2023-02-28T03:33:50;4.32;;;2.92;;
48733;SDS011;34530;52.084;5.146;2023-02-28T03:36:28;3.60;;;2.70;;
48733;SDS011;34530;52.084;5.146;2023-02-28T03:38:59;3.15;;;2.60;;
48733;SDS011;34530;52.084;5.146;2023-02-28T03:41:46;4.50;;;2.85;;
48733;SDS011;34530;52.084;5.146;2023-02-28T03:44:18;3.42;;;2.67;;
48733;SDS011;34530;52.084;5.146;2023-02-28T03:46:54;6.05;;;2.70;;
48733;SDS011;34530;52.084;5.146;2023-02-28T03:49:32;3.75;;;2.55;;
48733;SDS011;34530;52.084;5.146;2023-02-28T03:52:02;3.92;;;2.55;;
48733;SDS011;34530;52.084;5.146;2023-02-28T03:54:32;2.95;;;2.40;;
48733;SDS011;34530;52.084;5.146;2023-02-28T03:59:59;5.25;;;2.92;;
48733;SDS011;34530;52.084;5.146;2023-02-28T04:02:30;2.58;;;2.10;;
48733;SDS011;34530;52.084;5.146;2023-02-28T04:04:57;5.20;;;2.90;;
48733;SDS011;34530;52.084;5.146;2023-02-28T04:07:22;2.85;;;2.20;;
48733;SDS011;34530;52.084;5.146;2023-02-28T04:09:48;5.15;;;3.03;;
48733;SDS011;34530;52.084;5.146;2023-02-28T04:12:13;4.00;;;2.60;;
48733;SDS011;34530;52.084;5.146;2023-02-28T04:14:39;4.35;;;2.88;;
48733;SDS011;34530;52.084;5.146;2023-02-28T04:17:05;2.30;;;2.08;;
48733;SDS011;34530;52.084;5.146;2023-02-28T04:19:30;3.28;;;2.35;;
48733;SDS011;34530;52.084;5.146;2023-02-28T04:21:56;3.42;;;2.45;;
48733;SDS011;34530;52.084;5.146;2023-02-28T04:24:22;2.80;;;2.17;;
48733;SDS011;34530;52.084;5.146;2023-02-28T04:26:51;3.05;;;2.35;;
48733;SDS011;34530;52.084;5.146;2023-02-28T04:29:23;2.90;;;2.47;;
48733;SDS011;34530;52.084;5.146;2023-02-28T04:31:50;3.17;;;2.30;;
48733;SDS011;34530;52.084;5.146;2023-02-28T04:34:18;4.95;;;2.35;;
48733;SDS011;34530;52.084;5.146;2023-02-28T04:36:45;2.85;;;2.03;;
48733;SDS011;34530;52.084;5.146;2023-02-28T04:39:19;3.67;;;2.53;;
48733;SDS011;34530;52.084;5.146;2023-02-28T04:41:45;3.75;;;2.25;;
48733;SDS011;34530;52.084;5.146;2023-02-28T04:44:11;2.95;;;2.25;;
48733;SDS011;34530;52.084;5.146;2023-02-28T04:46:37;3.72;;;2.47;;
48733;SDS011;34530;52.084;5.146;2023-02-28T04:49:03;4.20;;;2.05;;
48733;SDS011;34530;52.084;5.146;2023-02-28T04:51:28;2.83;;;2.30;;
48733;SDS011;34530;52.084;5.146;2023-02-28T04:53:54;3.10;;;2.15;;
48733;SDS011;34530;52.084;5.146;2023-02-28T04:56:20;2.67;;;1.98;;
48733;SDS011;34530;52.084;5.146;2023-02-28T04:58:46;4.50;;;2.30;;
48733;SDS011;34530;52.084;5.146;2023-02-28T05:03:40;2.90;;;2.10;;
48733;SDS011;34530;52.084;5.146;2023-02-28T05:06:07;3.08;;;1.77;;
48733;SDS011;34530;52.084;5.146;2023-02-28T05:08:33;2.63;;;2.10;;
48733;SDS011;34530;52.084;5.146;2023-02-28T05:10:59;3.60;;;2.13;;
48733;SDS011;34530;52.084;5.146;2023-02-28T05:13:26;3.30;;;2.15;;
48733;SDS011;34530;52.084;5.146;2023-02-28T05:15:52;3.45;;;2.45;;
48733;SDS011;34530;52.084;5.146;2023-02-28T05:18:18;2.97;;;2.25;;
48733;SDS011;34530;52.084;5.146;2023-02-28T05:20:43;4.95;;;2.33;;
48733;SDS011;34530;52.084;5.146;2023-02-28T05:23:13;3.95;;;2.00;;
48733;SDS011;34530;52.084;5.146;2023-02-28T05:25:40;2.25;;;1.85;;
48733;SDS011;34530;52.084;5.146;2023-02-28T05:28:07;3.20;;;2.10;;
48733;SDS011;34530;52.084;5.146;2023-02-28T05:30:32;3.25;;;2.42;;
48733;SDS011;34530;52.084;5.146;2023-02-28T05:32:58;2.50;;;1.98;;
48733;SDS011;34530;52.084;5.146;2023-02-28T05:35:24;2.53;;;1.77;;
48733;SDS011;34530;52.084;5.146;2023-02-28T05:37:50;2.80;;;2.20;;
48733;SDS011;34530;52.084;5.146;2023-02-28T05:40:17;2.83;;;2.15;;
48733;SDS011;34530;52.084;5.146;2023-02-28T05:42:44;4.63;;;2.20;;
48733;SDS011;34530;52.084;5.146;2023-02-28T05:45:10;3.17;;;2.00;;
48733;SDS011;34530;52.084;5.146;2023-02-28T05:47:35;2.25;;;2.00;;
48733;SDS011;34530;52.084;5.146;2023-02-28T05:50:01;2.88;;;2.30;;
48733;SDS011;34530;52.084;5.146;2023-02-28T05:52:28;3.70;;;2.17;;
48733;SDS011;34530;52.084;5.146;2023-02-28T05:54:55;2.22;;;1.75;;
48733;SDS011;34530;52.084;5.146;2023-02-28T05:57:21;2.95;;;2.05;;
48733;SDS011;34530;52.084;5.146;2023-02-28T05:59:47;2.38;;;1.65;;
48733;SDS011;34530;52.084;5.146;2023-02-28T06:02:13;2.50;;;1.77;;
48733;SDS011;34530;52.084;5.146;2023-02-28T06:04:40;3.35;;;2.10;;
48733;SDS011;34530;52.084;5.146;2023-02-28T06:07:06;3.47;;;2.20;;
48733;SDS011;34530;52.084;5.146;2023-02-28T06:09:32;3.20;;;2.05;;
48733;SDS011;34530;52.084;5.146;2023-02-28T06:11:58;2.42;;;2.10;;
48733;SDS011;34530;52.084;5.146;2023-02-28T06:14:25;3.38;;;1.85;;
48733;SDS011;34530;52.084;5.146;2023-02-28T06:16:51;3.55;;;2.00;;
48733;SDS011;34530;52.084;5.146;2023-02-28T06:19:17;2.63;;;1.80;;
48733;SDS011;34530;52.084;5.146;2023-02-28T06:21:42;3.92;;;1.77;;
48733;SDS011;34530;52.084;5.146;2023-02-28T06:24:08;2.78;;;2.30;;
48733;SDS011;34530;52.084;5.146;2023-02-28T06:26:34;2.10;;;1.90;;
48733;SDS011;34530;52.084;5.146;2023-02-28T06:29:00;4.28;;;2.25;;
48733;SDS011;34530;52.084;5.146;2023-02-28T06:31:26;2.25;;;1.73;;
48733;SDS011;34530;52.084;5.146;2023-02-28T06:33:54;2.90;;;2.10;;
48733;SDS011;34530;52.084;5.146;2023-02-28T06:36:20;3.58;;;1.80;;
48733;SDS011;34530;52.084;5.146;2023-02-28T06:38:46;2.75;;;2.22;;
48733;SDS011;34530;52.084;5.146;2023-02-28T06:41:16;2.67;;;1.80;;
48733;SDS011;34530;52.084;5.146;2023-02-28T06:43:42;2.15;;;1.40;;
48733;SDS011;34530;52.084;5.146;2023-02-28T06:46:09;3.47;;;2.38;;
48733;SDS011;34530;52.084;5.146;2023-02-28T06:48:37;2.67;;;1.77;;
48733;SDS011;34530;52.084;5.146;2023-02-28T06:51:07;3.45;;;1.88;;
48733;SDS011;34530;52.084;5.146;2023-02-28T06:53:38;2.72;;;1.90;;
48733;SDS011;34530;52.084;5.146;2023-02-28T06:56:07;3.55;;;1.70;;
48733;SDS011;34530;52.084;5.146;2023-02-28T06:58:34;2.05;;;1.85;;
48733;SDS011;34530;52.084;5.146;2023-02-28T07:01:00;1.95;;;1.63;;
48733;SDS011;34530;52.084;5.146;2023-02-28T07:03:26;2.90;;;2.13;;
48733;SDS011;34530;52.084;5.146;2023-02-28T07:05:51;3.90;;;2.05;;
48733;SDS011;34530;52.084;5.146;2023-02-28T07:08:17;2.22;;;1.40;;
48733;SDS011;34530;52.084;5.146;2023-02-28T07:10:43;1.80;;;1.70;;
48733;SDS011;34530;52.084;5.146;2023-02-28T07:13:08;3.88;;;2.20;;
48733;SDS011;34530;52.084;5.146;2023-02-28T07:15:35;2.20;;;2.00;;
48733;SDS011;34530;52.084;5.146;2023-02-28T07:18:01;3.20;;;1.80;;
48733;SDS011;34530;52.084;5.146;2023-02-28T07:20:28;3.00;;;1.90;;
48733;SDS011;34530;52.084;5.146;2023-02-28T07:22:54;3.45;;;1.92;;
48733;SDS011;34530;52.084;5.146;2023-02-28T07:25:23;2.17;;;1.70;;
48733;SDS011;34530;52.084;5.146;2023-02-28T07:27:49;2.97;;;1.95;;
48733;SDS011;34530;52.084;5.146;2023-02-28T07:30:15;3.53;;;2.00;;
48733;SDS011;34530;52.084;5.146;2023-02-28T07:32:40;3.13;;;1.90;;
48733;SDS011;34530;52.084;5.146;2023-02-28T07:35:06;1.95;;;1.50;;
48733;SDS011;34530;52.084;5.146;2023-02-28T07:37:32;1.70;;;1.60;;
48733;SDS011;34530;52.084;5.146;2023-02-28T07:40:01;3.65;;;2.08;;
48733;SDS011;34530;52.084;5.146;2023-02-28T07:42:33;2.50;;;2.00;;
48733;SDS011;34530;52.084;5.146;2023-02-28T07:44:59;2.85;;;2.15;;
48733;SDS011;34530;52.084;5.146;2023-02-28T07:47:25;2.65;;;1.90;;
48733;SDS011;34530;52.084;5.146;2023-02-28T07:49:50;2.65;;;2.05;;
48733;SDS011;34530;52.084;5.146;2023-02-28T07:52:16;2.08;;;1.80;;
48733;SDS011;34530;52.084;5.146;2023-02-28T07:54:41;3.20;;;1.75;;
48733;SDS011;34530;52.084;5.146;2023-02-28T07:57:07;2.75;;;1.90;;
48733;SDS011;34530;52.084;5.146;2023-02-28T07:59:33;2.92;;;1.73;;
48733;SDS011;34530;52.084;5.146;2023-02-28T08:01:58;1.88;;;1.67;;
48733;SDS011;34530;52.084;5.146;2023-02-28T08:04:24;1.92;;;1.65;;
48733;SDS011;34530;52.084;5.146;2023-02-28T08:06:50;2.75;;;1.50;;
48733;SDS011;34530;52.084;5.146;2023-02-28T08:09:17;3.03;;;1.60;;
48733;SDS011;34530;52.084;5.146;2023-02-28T08:11:43;1.88;;;1.77;;
48733;SDS011;34530;52.084;5.146;2023-02-28T08:14:09;2.65;;;1.73;;
48733;SDS011;34530;52.084;5.146;2023-02-28T08:16:35;2.33;;;1.98;;
48733;SDS011;34530;52.084;5.146;2023-02-28T08:19:00;2.30;;;2.08;;
48733;SDS011;34530;52.084;5.146;2023-02-28T08:21:26;2.13;;;1.83;;
48733;SDS011;34530;52.084;5.146;2023-02-28T08:23:51;1.70;;;1.60;;
48733;SDS011;34530;52.084;5.146;2023-02-28T08:26:17;1.73;;;1.38;;
48733;SDS011;34530;52.084;5.146;2023-02-28T08:28:43;2.80;;;1.67;;
48733;SDS011;34530;52.084;5.146;2023-02-28T08:31:10;2.97;;;1.50;;
48733;SDS011;34530;52.084;5.146;2023-02-28T08:33:38;2.58;;;1.80;;
48733;SDS011;34530;52.084;5.146;2023-02-28T08:36:05;1.98;;;1.70;;
48733;SDS011;34530;52.084;5.146;2023-02-28T08:38:32;2.47;;;1.80;;
48733;SDS011;34530;52.084;5.146;2023-02-28T08:41:01;2.22;;;1.60;;
48733;SDS011;34530;52.084;5.146;2023-02-28T08:43:31;1.77;;;1.50;;
48733;SDS011;34530;52.084;5.146;2023-02-28T08:45:56;2.92;;;1.73;;
48733;SDS011;34530;52.084;5.146;2023-02-28T08:48:32;2.38;;;1.98;;
48733;SDS011;34530;52.084;5.146;2023-02-28T08:51:00;2.15;;;1.50;;
48733;SDS011;34530;52.084;5.146;2023-02-28T08:53:27;1.95;;;1.38;;
48733;SDS011;34530;52.084;5.146;2023-02-28T08:56:00;2.10;;;1.90;;
48733;SDS011;34530;52.084;5.146;2023-02-28T08:58:39;1.67;;;1.52;;
48733;SDS011;34530;52.084;5.146;2023-02-28T09:01:38;1.90;;;1.40;;
48733;SDS011;34530;52.084;5.146;2023-02-28T09:03:57;2.65;;;1.60;;
48733;SDS011;34530;52.084;5.146;2023-02-28T09:06:24;2.40;;;1.45;;
48733;SDS011;34530;52.084;5.146;2023-02-28T09:08:51;1.95;;;1.80;;
48733;SDS011;34530;52.084;5.146;2023-02-28T09:11:17;2.13;;;1.90;;
48733;SDS011;34530;52.084;5.146;2023-02-28T09:13:44;1.58;;;1.40;;
48733;SDS011;34530;52.084;5.146;2023-02-28T09:16:11;2.58;;;1.88;;
48733;SDS011;34530;52.084;5.146;2023-02-28T09:18:38;2.22;;;1.58;;
48733;SDS011;34530;52.084;5.146;2023-02-28T09:21:05;2.50;;;1.50;;
48733;SDS011;34530;52.084;5.146;2023-02-28T09:23:32;2.15;;;1.63;;
48733;SDS011;34530;52.084;5.146;2023-02-28T09:25:58;1.63;;;1.40;;
48733;SDS011;34530;52.084;5.146;2023-02-28T09:28:23;1.83;;;1.50;;
48733;SDS011;34530;52.084;5.146;2023-02-28T09:30:50;2.47;;;1.40;;
48733;SDS011;34530;52.084;5.146;2023-02-28T09:33:18;2.80;;;1.60;;
48733;SDS011;34530;52.084;5.146;2023-02-28T09:35:48;2.30;;;1.80;;
48733;SDS011;34530;52.084;5.146;2023-02-28T09:38:15;2.17;;;1.58;;
48733;SDS011;34530;52.084;5.146;2023-02-28T09:40:50;1.75;;;1.52;;
48733;SDS011;34530;52.084;5.146;2023-02-28T09:43:22;2.00;;;1.50;;
48733;SDS011;34530;52.084;5.146;2023-02-28T09:45:59;2.60;;;1.67;;
48733;SDS011;34530;52.084;5.146;2023-02-28T09:48:37;1.40;;;1.30;;
48733;SDS011;34530;52.084;5.146;2023-02-28T09:53:54;1.83;;;1.42;;
48733;SDS011;34530;52.084;5.146;2023-02-28T09:56:21;1.60;;;1.40;;
48733;SDS011;34530;52.084;5.146;2023-02-28T10:02:48;1.50;;;1.40;;
48733;SDS011;34530;52.084;5.146;2023-02-28T10:05:12;1.80;;;1.45;;
48733;SDS011;34530;52.084;5.146;2023-02-28T10:10:37;1.88;;;1.40;;
48733;SDS011;34530;52.084;5.146;2023-02-28T10:16:22;1.63;;;1.40;;
48733;SDS011;34530;52.084;5.146;2023-02-28T10:22:03;1.80;;;1.38;;
48733;SDS011;34530;52.084;5.146;2023-02-28T10:24:39;1.42;;;1.33;;
48733;SDS011;34530;52.084;5.146;2023-02-28T10:27:18;2.42;;;1.75;;
48733;SDS011;34530;52.084;5.146;2023-02-28T10:29:57;2.55;;;1.63;;
48733;SDS011;34530;52.084;5.146;2023-02-28T10:32:35;2.45;;;1.63;;
48733;SDS011;34530;52.084;5.146;2023-02-28T10:37:34;1.30;;;1.20;;
48733;SDS011;34530;52.084;5.146;2023-02-28T10:40:03;2.22;;;1.30;;
48733;SDS011;34530;52.084;5.146;2023-02-28T10:42:31;2.95;;;1.80;;
48733;SDS011;34530;52.084;5.146;2023-02-28T10:47:41;2.13;;;1.40;;
48733;SDS011;34530;52.084;5.146;2023-02-28T10:50:33;1.42;;;1.33;;
48733;SDS011;34530;52.084;5.146;2023-02-28T10:56:14;1.50;;;1.30;;
48733;SDS011;34530;52.084;5.146;2023-02-28T10:58:46;1.85;;;1.45;;
48733;SDS011;34530;52.084;5.146;2023-02-28T11:04:01;2.42;;;1.52;;
48733;SDS011;34530;52.084;5.146;2023-02-28T11:06:31;1.92;;;1.58;;
48733;SDS011;34530;52.084;5.146;2023-02-28T11:09:00;3.13;;;1.40;;
48733;SDS011;34530;52.084;5.146;2023-02-28T11:11:29;1.40;;;1.30;;
48733;SDS011;34530;52.084;5.146;2023-02-28T11:13:58;1.52;;;1.40;;
48733;SDS011;34530;52.084;5.146;2023-02-28T11:16:33;2.17;;;1.38;;
48733;SDS011;34530;52.084;5.146;2023-02-28T11:19:01;1.50;;;1.40;;
48733;SDS011;34530;52.084;5.146;2023-02-28T11:21:33;1.52;;;1.33;;
48733;SDS011;34530;52.084;5.146;2023-02-28T11:26:53;1.25;;;1.17;;
48733;SDS011;34530;52.084;5.146;2023-02-28T11:32:01;1.52;;;1.30;;
48733;SDS011;34530;52.084;5.146;2023-02-28T11:34:33;1.50;;;1.40;;
48733;SDS011;34530;52.084;5.146;2023-02-28T11:37:00;1.48;;;1.08;;
48733;SDS011;34530;52.084;5.146;2023-02-28T11:39:30;1.73;;;1.40;;
48733;SDS011;34530;52.084;5.146;2023-02-28T11:47:14;1.50;;;1.40;;
48733;SDS011;34530;52.084;5.146;2023-02-28T11:52:36;1.42;;;1.33;;
48733;SDS011;34530;52.084;5.146;2023-02-28T11:55:46;1.30;;;1.20;;
48733;SDS011;34530;52.084;5.146;2023-02-28T12:09:02;1.70;;;1.38;;
48733;SDS011;34530;52.084;5.146;2023-02-28T12:11:40;1.58;;;1.20;;
48733;SDS011;34530;52.084;5.146;2023-02-28T12:19:28;1.77;;;1.35;;
48733;SDS011;34530;52.084;5.146;2023-02-28T12:27:13;1.35;;;1.23;;
48733;SDS011;34530;52.084;5.146;2023-02-28T12:29:49;1.30;;;1.20;;
48733;SDS011;34530;52.084;5.146;2023-02-28T12:32:33;1.42;;;1.33;;
48733;SDS011;34530;52.084;5.146;2023-02-28T12:40:20;1.70;;;1.20;;
48733;SDS011;34530;52.084;5.146;2023-02-28T12:42:54;1.48;;;1.38;;
48733;SDS011;34530;52.084;5.146;2023-02-28T12:45:36;2.55;;;1.25;;
48733;SDS011;34530;52.084;5.146;2023-02-28T12:48:59;1.40;;;1.15;;
48733;SDS011;34530;52.084;5.146;2023-02-28T12:51:05;1.58;;;1.00;;
48733;SDS011;34530;52.084;5.146;2023-02-28T12:53:41;1.02;;;1.02;;
48733;SDS011;34530;52.084;5.146;2023-02-28T12:59:23;1.42;;;1.27;;
48733;SDS011;34530;52.084;5.146;2023-02-28T13:10:43;2.85;;;1.60;;
48733;SDS011;34530;52.084;5.146;2023-02-28T13:13:20;1.60;;;1.15;;
48733;SDS011;34530;52.084;5.146;2023-02-28T13:16:08;1.63;;;1.15;;
48733;SDS011;34530;52.084;5.146;2023-02-28T13:21:08;2.70;;;1.20;;
48733;SDS011;34530;52.084;5.146;2023-02-28T13:29:21;1.30;;;1.20;;
48733;SDS011;34530;52.084;5.146;2023-02-28T13:34:30;1.60;;;1.35;;
48733;SDS011;34530;52.084;5.146;2023-02-28T13:39:55;1.00;;;0.93;;
48733;SDS011;34530;52.084;5.146;2023-02-28T13:55:58;1.42;;;1.30;;
48733;SDS011;34530;52.084;5.146;2023-02-28T14:11:46;3.58;;;1.30;;
48733;SDS011;34530;52.084;5.146;2023-02-28T14:16:59;1.30;;;1.20;;
48733;SDS011;34530;52.084;5.146;2023-02-28T14:19:28;4.47;;;1.20;;
48733;SDS011;34530;52.084;5.146;2023-02-28T14:24:38;1.42;;;1.27;;
48733;SDS011;34530;52.084;5.146;2023-02-28T14:34:58;1.20;;;1.00;;
48733;SDS011;34530;52.084;5.146;2023-02-28T14:37:48;1.90;;;1.00;;
48733;SDS011;34530;52.084;5.146;2023-02-28T14:40:19;2.35;;;1.35;;
48733;SDS011;34530;52.084;5.146;2023-02-28T14:42:55;1.20;;;1.10;;
48733;SDS011;34530;52.084;5.146;2023-02-28T14:45:22;1.45;;;1.20;;
48733;SDS011;34530;52.084;5.146;2023-02-28T14:47:49;1.30;;;1.10;;
48733;SDS011;34530;52.084;5.146;2023-02-28T14:50:22;3.13;;;1.00;;
48733;SDS011;34530;52.084;5.146;2023-02-28T14:52:52;1.63;;;1.08;;
48733;SDS011;34530;52.084;5.146;2023-02-28T14:55:21;2.72;;;1.08;;
48733;SDS011;34530;52.084;5.146;2023-02-28T14:57:52;1.35;;;0.98;;
48733;SDS011;34530;52.084;5.146;2023-02-28T15:02:52;2.25;;;1.08;;
48733;SDS011;34530;52.084;5.146;2023-02-28T15:05:22;3.88;;;1.00;;
48733;SDS011;34530;52.084;5.146;2023-02-28T15:08:16;1.40;;;1.20;;
48733;SDS011;34530;52.084;5.146;2023-02-28T15:10:43;2.80;;;1.02;;
48733;SDS011;34530;52.084;5.146;2023-02-28T15:13:12;4.03;;;1.20;;
48733;SDS011;34530;52.084;5.146;2023-02-28T15:18:10;1.33;;;1.20;;
48733;SDS011;34530;52.084;5.146;2023-02-28T15:20:40;1.60;;;1.08;;
48733;SDS011;34530;52.084;5.146;2023-02-28T15:23:09;1.20;;;0.98;;
48733;SDS011;34530;52.084;5.146;2023-02-28T15:25:36;1.50;;;1.00;;
48733;SDS011;34530;52.084;5.146;2023-02-28T15:28:02;1.65;;;1.02;;
48733;SDS011;34530;52.084;5.146;2023-02-28T15:30:29;0.95;;;0.88;;
48733;SDS011;34530;52.084;5.146;2023-02-28T15:33:06;0.90;;;0.90;;
48733;SDS011;34530;52.084;5.146;2023-02-28T15:35:43;1.13;;;1.02;;
48733;SDS011;34530;52.084;5.146;2023-02-28T15:38:14;1.27;;;1.17;;
48733;SDS011;34530;52.084;5.146;2023-02-28T15:40:46;1.20;;;1.10;;
48733;SDS011;34530;52.084;5.146;2023-02-28T15:43:39;1.00;;;0.90;;
48733;SDS011;34530;52.084;5.146;2023-02-28T15:46:06;1.02;;;0.93;;
48733;SDS011;34530;52.084;5.146;2023-02-28T15:48:38;1.42;;;1.10;;
48733;SDS011;34530;52.084;5.146;2023-02-28T15:51:14;1.40;;;1.02;;
48733;SDS011;34530;52.084;5.146;2023-02-28T15:53:45;1.20;;;1.10;;
48733;SDS011;34530;52.084;5.146;2023-02-28T15:58:53;0.85;;;0.82;;
48733;SDS011;34530;52.084;5.146;2023-02-28T16:01:24;2.33;;;1.00;;
48733;SDS011;34530;52.084;5.146;2023-02-28T16:03:56;1.25;;;1.15;;
48733;SDS011;34530;52.084;5.146;2023-02-28T16:09:09;0.90;;;0.90;;
48733;SDS011;34530;52.084;5.146;2023-02-28T16:11:40;1.75;;;1.00;;
48733;SDS011;34530;52.084;5.146;2023-02-28T16:14:18;2.00;;;1.30;;
48733;SDS011;34530;52.084;5.146;2023-02-28T16:16:48;1.85;;;0.88;;
48733;SDS011;34530;52.084;5.146;2023-02-28T16:19:16;1.15;;;0.98;;
48733;SDS011;34530;52.084;5.146;2023-02-28T16:21:42;3.05;;;1.20;;
48733;SDS011;34530;52.084;5.146;2023-02-28T16:24:08;1.25;;;1.15;;
48733;SDS011;34530;52.084;5.146;2023-02-28T16:26:33;0.90;;;0.90;;
48733;SDS011;34530;52.084;5.146;2023-02-28T16:29:02;0.90;;;0.90;;
48733;SDS011;34530;52.084;5.146;2023-02-28T16:31:28;1.25;;;1.10;;
48733;SDS011;34530;52.084;5.146;2023-02-28T16:33:54;0.90;;;0.90;;
48733;SDS011;34530;52.084;5.146;2023-02-28T16:36:21;1.08;;;0.98;;
48733;SDS011;34530;52.084;5.146;2023-02-28T16:38:50;0.85;;;0.85;;
48733;SDS011;34530;52.084;5.146;2023-02-28T16:41:19;2.15;;;0.98;;
48733;SDS011;34530;52.084;5.146;2023-02-28T16:43:48;0.80;;;0.80;;
48733;SDS011;34530;52.084;5.146;2023-02-28T16:46:16;1.17;;;1.05;;
48733;SDS011;34530;52.084;5.146;2023-02-28T16:48:43;1.83;;;1.25;;
48733;SDS011;34530;52.084;5.146;2023-02-28T16:51:13;1.10;;;1.00;;
48733;SDS011;34530;52.084;5.146;2023-02-28T16:53:40;1.30;;;0.90;;
48733;SDS011;34530;52.084;5.146;2023-02-28T16:56:09;0.80;;;0.80;;
48733;SDS011;34530;52.084;5.146;2023-02-28T16:58:48;1.30;;;1.17;;
48733;SDS011;34530;52.084;5.146;2023-02-28T17:01:15;3.53;;;1.10;;
48733;SDS011;34530;52.084;5.146;2023-02-28T17:03:46;1.50;;;0.80;;
48733;SDS011;34530;52.084;5.146;2023-02-28T17:06:16;1.33;;;1.00;;
48733;SDS011;34530;52.084;5.146;2023-02-28T17:08:53;1.80;;;0.90;;
48733;SDS011;34530;52.084;5.146;2023-02-28T17:11:20;2.58;;;1.17;;
48733;SDS011;34530;52.084;5.146;2023-02-28T17:13:46;1.00;;;0.95;;
48733;SDS011;34530;52.084;5.146;2023-02-28T17:16:17;1.48;;;1.10;;
48733;SDS011;34530;52.084;5.146;2023-02-28T17:18:45;1.38;;;1.00;;
48733;SDS011;34530;52.084;5.146;2023-02-28T17:21:12;1.05;;;0.90;;
48733;SDS011;34530;52.084;5.146;2023-02-28T17:23:40;2.17;;;1.00;;
48733;SDS011;34530;52.084;5.146;2023-02-28T17:26:05;2.60;;;1.05;;
48733;SDS011;34530;52.084;5.146;2023-02-28T17:28:31;0.82;;;0.80;;
48733;SDS011;34530;52.084;5.146;2023-02-28T17:30:57;1.25;;;1.10;;
48733;SDS011;34530;52.084;5.146;2023-02-28T17:33:23;2.90;;;1.00;;
48733;SDS011;34530;52.084;5.146;2023-02-28T17:35:48;1.25;;;0.98;;
48733;SDS011;34530;52.084;5.146;2023-02-28T17:38:18;1.92;;;1.10;;
48733;SDS011;34530;52.084;5.146;2023-02-28T17:40:44;1.83;;;1.13;;
48733;SDS011;34530;52.084;5.146;2023-02-28T17:43:10;1.25;;;1.08;;
48733;SDS011;34530;52.084;5.146;2023-02-28T17:45:35;1.17;;;0.80;;
48733;SDS011;34530;52.084;5.146;2023-02-28T17:48:01;1.00;;;1.00;;
48733;SDS011;34530;52.084;5.146;2023-02-28T17:50:27;1.50;;;1.20;;
48733;SDS011;34530;52.084;5.146;2023-02-28T17:52:53;1.25;;;1.10;;
48733;SDS011;34530;52.084;5.146;2023-02-28T17:55:18;2.47;;;1.10;;